| time (UTC) | temp F | wind direction | speed MPH | gust MPH | rain 1hr in | rain 24hr in | rain mn in | humidity % | barometer mb |
| 20260510094518 | 48 | 186 | 0.0 | 2.0 | 0.00 | 0.35 | 0.00 | 96 | 1014.7 |
| 20260510093012 | 48 | 181 | 2.0 | 4.0 | 0.00 | 0.35 | 0.00 | 96 | 1014.9 |
| 20260510091512 | 48 | 162 | 1.0 | 3.0 | 0.00 | 0.35 | 0.00 | 96 | 1014.9 |
| 20260510090011 | 48 | 155 | 1.0 | 3.0 | 0.00 | 0.35 | 0.00 | 96 | 1014.9 |
| 20260510084510 | 48 | 13 | 0.0 | 1.0 | 0.00 | 0.35 | 0.00 | 96 | 1015.2 |
| 20260510083010 | 48 | 10 | 0.0 | 1.0 | 0.00 | 0.35 | 0.00 | 97 | 1015.1 |
| 20260510081509 | 48 | 19 | 1.0 | 3.0 | 0.00 | 0.35 | 0.00 | 97 | 1015.5 |
| 20260510080018 | 48 | 332 | 2.0 | 4.0 | 0.00 | 0.35 | 0.00 | 96 | 1015.4 |
| 20260510074506 | 47 | 350 | 3.0 | 8.0 | 0.00 | 0.35 | 0.00 | 96 | 1015.3 |
| 20260510073004 | 47 | 340 | 0.0 | 2.0 | 0.00 | 0.35 | 0.00 | 96 | 1014.5 |
| 20260510071503 | 47 | 329 | 0.0 | 1.0 | 0.00 | 0.35 | 0.00 | 96 | 1014.4 |
| 20260510070114 | 48 | 329 | 0.0 | 2.0 | 0.00 | 0.35 | 0.00 | 96 | 1014.5 |
| 20260510064558 | 48 | 342 | 0.0 | 3.0 | 0.00 | 0.35 | 0.00 | 96 | 1014.5 |
| 20260510063057 | 48 | 295 | 0.0 | 1.0 | 0.00 | 0.35 | 0.00 | 96 | 1014.7 |
| 20260510061556 | 49 | 337 | 0.0 | 1.0 | 0.00 | 0.35 | 0.00 | 96 | 1014.8 |
| 20260510060053 | 48 | 314 | 0.0 | 1.0 | 0.00 | 0.35 | 0.00 | 96 | 1014.7 |
| 20260510054653 | 48 | 155 | 0.0 | 2.0 | 0.00 | 0.35 | 0.00 | 96 | 1014.5 |
| 20260510053054 | 48 | 158 | 0.0 | 3.0 | 0.00 | 0.35 | 0.00 | 96 | 1014.3 |
| 20260510051603 | 49 | 165 | 0.0 | 2.0 | 0.00 | 0.35 | 0.00 | 96 | 1014.3 |
| 20260510050105 | 49 | 164 | 0.0 | 2.0 | 0.00 | 0.35 | 0.00 | 96 | 1014.4 |
| 20260510044548 | 49 | 167 | 0.0 | 1.0 | 0.00 | 0.35 | 0.00 | 96 | 1014.4 |
| 20260510043048 | 49 | 168 | 1.0 | 6.0 | 0.00 | 0.35 | 0.00 | 96 | 1014.4 |
| 20260510041544 | 49 | 196 | 1.0 | 3.0 | 0.00 | 0.35 | 0.00 | 95 | 1014.5 |
| 20260510040040 | 49 | 172 | 1.0 | 3.0 | 0.00 | 0.35 | 0.00 | 96 | 1014.4 |
| 20260510034539 | 49 | 160 | 0.0 | 1.0 | 0.00 | 0.35 | 0.35 | 96 | 1014.5 |
| 20260510033051 | 49 | 160 | 0.0 | 3.0 | 0.00 | 0.35 | 0.35 | 95 | 1014.3 |
| 20260510031544 | 49 | 165 | 2.0 | 5.0 | 0.00 | 0.35 | 0.35 | 95 | 1014.3 |
| 20260510030036 | 49 | 162 | 1.0 | 3.0 | 0.00 | 0.35 | 0.35 | 95 | 1014.1 |
| 20260510024537 | 49 | 133 | 0.0 | 2.0 | 0.00 | 0.35 | 0.35 | 95 | 1014.1 |
| 20260510023036 | 50 | 163 | 0.0 | 5.0 | 0.00 | 0.35 | 0.35 | 95 | 1014.2 |
| 20260510021611 | 50 | 188 | 3.0 | 10.0 | 0.00 | 0.35 | 0.35 | 95 | 1014.2 |
| 20260510020033 | 49 | 206 | 1.0 | 4.0 | 0.00 | 0.35 | 0.35 | 95 | 1014.2 |
| 20260510014546 | 49 | 167 | 0.0 | 0.0 | 0.00 | 0.35 | 0.35 | 94 | 1014.3 |
| 20260510013034 | 50 | 167 | 0.0 | 2.0 | 0.00 | 0.35 | 0.35 | 94 | 1014.2 |
| 20260510011532 | 50 | 164 | 1.0 | 4.0 | 0.00 | 0.35 | 0.35 | 94 | 1014.2 |
| 20260510010042 | 51 | 181 | 1.0 | 4.0 | 0.00 | 0.35 | 0.35 | 94 | 1014.1 |
| 20260510004531 | 51 | 165 | 1.0 | 5.0 | 0.00 | 0.35 | 0.35 | 94 | 1013.6 |
| 20260510003030 | 51 | 147 | 3.0 | 7.0 | 0.00 | 0.35 | 0.35 | 94 | 1013.4 |
| 20260510001533 | 51 | 172 | 2.0 | 6.0 | 0.00 | 0.35 | 0.35 | 94 | 1013.4 |
| 20260510000029 | 51 | 177 | 3.0 | 7.0 | 0.00 | 0.35 | 0.35 | 93 | 1013.4 |
| 20260509234529 | 52 | 178 | 2.0 | 8.0 | 0.00 | 0.35 | 0.35 | 93 | 1013.3 |
| 20260509233033 | 52 | 171 | 2.0 | 5.0 | 0.00 | 0.35 | 0.35 | 93 | 1013.2 |
| 20260509231528 | 52 | 168 | 2.0 | 6.0 | 0.00 | 0.35 | 0.35 | 92 | 1013.0 |
| 20260509230035 | 53 | 158 | 4.0 | 8.0 | 0.00 | 0.35 | 0.35 | 91 | 1013.1 |
| 20260509224525 | 54 | 159 | 2.0 | 5.0 | 0.00 | 0.35 | 0.35 | 90 | 1013.2 |
| 20260509223025 | 54 | 155 | 1.0 | 5.0 | 0.00 | 0.35 | 0.35 | 90 | 1013.1 |
| 20260509221523 | 54 | 188 | 0.0 | 3.0 | 0.00 | 0.35 | 0.35 | 89 | 1013.3 |
| 20260509220022 | 54 | 177 | 1.0 | 2.0 | 0.00 | 0.35 | 0.35 | 90 | 1013.4 |
| 20260509214520 | 53 | 257 | 0.0 | 2.0 | 0.01 | 0.35 | 0.35 | 90 | 1013.4 |
| 20260509213021 | 53 | 303 | 0.0 | 1.0 | 0.02 | 0.35 | 0.35 | 92 | 1013.4 |
| 20260509211520 | 52 | 158 | 0.0 | 0.0 | 0.02 | 0.35 | 0.35 | 93 | 1013.5 |
| 20260509210020 | 52 | 233 | 0.0 | 2.0 | 0.04 | 0.35 | 0.35 | 92 | 1013.6 |
| 20260509204519 | 52 | 18 | 0.0 | 3.0 | 0.05 | 0.34 | 0.34 | 92 | 1013.4 |
| 20260509203024 | 52 | 3 | 0.0 | 2.0 | 0.08 | 0.33 | 0.33 | 93 | 1013.6 |
| 20260509201518 | 52 | 237 | 0.0 | 2.0 | 0.10 | 0.33 | 0.33 | 92 | 1013.5 |
| 20260509200014 | 52 | 300 | 1.0 | 3.0 | 0.10 | 0.31 | 0.31 | 92 | 1014.0 |
| 20260509194516 | 52 | 41 | 1.0 | 6.0 | 0.11 | 0.28 | 0.28 | 92 | 1014.4 |
| 20260509193021 | 52 | 256 | 0.0 | 4.0 | 0.12 | 0.25 | 0.25 | 92 | 1014.4 |
| 20260509191513 | 52 | 340 | 1.0 | 5.0 | 0.12 | 0.22 | 0.22 | 92 | 1014.3 |
| 20260509190011 | 52 | 174 | 0.0 | 3.0 | 0.15 | 0.20 | 0.20 | 92 | 1014.4 |
| 20260509184510 | 53 | 15 | 0.0 | 5.0 | 0.15 | 0.17 | 0.17 | 91 | 1014.5 |
| 20260509183013 | 52 | 293 | 0.0 | 5.0 | 0.12 | 0.13 | 0.13 | 89 | 1014.5 |
| 20260509181508 | 53 | 139 | 0.0 | 3.0 | 0.09 | 0.10 | 0.10 | 90 | 1014.5 |
| 20260509180005 | 53 | 298 | 4.0 | 10.0 | 0.04 | 0.05 | 0.05 | 86 | 1015.2 |
| 20260509174505 | 54 | 290 | 2.0 | 7.0 | 0.01 | 0.02 | 0.02 | 84 | 1015.2 |
| 20260509173006 | 55 | 284 | 2.0 | 6.0 | 0.00 | 0.01 | 0.01 | 83 | 1015.0 |
| 20260509171506 | 56 | 297 | 2.0 | 10.0 | 0.00 | 0.01 | 0.01 | 80 | 1014.8 |
| 20260509170002 | 56 | 207 | 1.0 | 8.0 | 0.00 | 0.01 | 0.01 | 78 | 1014.8 |
| 20260509164501 | 57 | 212 | 2.0 | 7.0 | 0.00 | 0.01 | 0.01 | 75 | 1014.8 |
| 20260509163105 | 57 | 212 | 3.0 | 6.0 | 0.00 | 0.01 | 0.01 | 75 | 1014.7 |
| 20260509161605 | 57 | 212 | 1.0 | 7.0 | 0.00 | 0.01 | 0.01 | 76 | 1014.9 |
| 20260509160101 | 56 | 214 | 3.0 | 6.0 | 0.00 | 0.01 | 0.01 | 77 | 1014.9 |
| 20260509154555 | 56 | 205 | 1.0 | 7.0 | 0.01 | 0.01 | 0.01 | 80 | 1015.3 |
| 20260509153059 | 56 | 208 | 1.0 | 8.0 | 0.01 | 0.01 | 0.01 | 82 | 1015.2 |
| 20260509151550 | 55 | 169 | 0.0 | 2.0 | 0.01 | 0.01 | 0.01 | 85 | 1015.2 |
| 20260509150047 | 54 | 188 | 1.0 | 4.0 | 0.01 | 0.01 | 0.01 | 84 | 1015.4 |
| 20260509144550 | 54 | 189 | 1.0 | 3.0 | 0.00 | 0.00 | 0.00 | 84 | 1015.4 |
| 20260509143044 | 54 | 184 | 1.0 | 5.0 | 0.00 | 0.00 | 0.00 | 84 | 1015.3 |
| 20260509141544 | 53 | 206 | 2.0 | 6.0 | 0.00 | 0.00 | 0.00 | 84 | 1015.0 |
| 20260509140055 | 53 | 150 | 2.0 | 5.0 | 0.00 | 0.00 | 0.00 | 84 | 1014.9 |
| 20260509134539 | 52 | 163 | 0.0 | 5.0 | 0.00 | 0.00 | 0.00 | 84 | 1015.0 |
| 20260509133039 | 52 | 174 | 0.0 | 5.0 | 0.00 | 0.00 | 0.00 | 83 | 1015.1 |
| 20260509131537 | 52 | 184 | 0.0 | 4.0 | 0.00 | 0.00 | 0.00 | 82 | 1015.3 |
| 20260509130034 | 51 | 173 | 1.0 | 6.0 | 0.00 | 0.00 | 0.00 | 81 | 1015.3 |
| 20260509124533 | 51 | 184 | 2.0 | 7.0 | 0.00 | 0.00 | 0.00 | 80 | 1015.5 |
| 20260509123031 | 51 | 157 | 3.0 | 6.0 | 0.00 | 0.00 | 0.00 | 80 | 1015.3 |
| 20260509121530 | 50 | 160 | 2.0 | 4.0 | 0.00 | 0.00 | 0.00 | 81 | 1015.4 |
| 20260509120028 | 50 | 174 | 3.0 | 6.0 | 0.00 | 0.00 | 0.00 | 82 | 1015.7 |
| 20260509114529 | 50 | 147 | 2.0 | 4.0 | 0.00 | 0.00 | 0.00 | 81 | 1015.2 |
| 20260509113026 | 50 | 145 | 1.0 | 4.0 | 0.00 | 0.00 | 0.00 | 78 | 1015.3 |
| 20260509111525 | 50 | 97 | 1.0 | 5.0 | 0.00 | 0.00 | 0.00 | 78 | 1015.0 |
| 20260509110024 | 50 | 165 | 1.0 | 3.0 | 0.00 | 0.00 | 0.00 | 77 | 1015.4 |
| 20260509104523 | 49 | 148 | 0.0 | 2.0 | 0.00 | 0.00 | 0.00 | 78 | 1015.6 |
| 20260509103023 | 49 | 209 | 0.0 | 1.0 | 0.00 | 0.00 | 0.00 | 82 | 1015.4 |
| 20260509101523 | 49 | 242 | 0.0 | 1.0 | 0.00 | 0.00 | 0.00 | 81 | 1015.1 |
| 20260509100025 | 48 | 243 | 0.0 | 1.0 | 0.00 | 0.00 | 0.00 | 82 | 1015.2 |